Louis Cristal — 9HA2978 — position and weather

sailwx.info

Track history (hours):
 
Tides and Currents Weather Stations Pressure Air Temp Water Temp Dewpoint Dewpoint Depression Visibility Wind Speed Wind Dir Waves Ship Positions

Louis Cristal

Last reported at 2014-Aug-02 00:33 UTC. Time now 2014-Aug-02 02:44 UTC.
Position N 37°45' E 026°18'.

Length 162 m; draft 6 m.

Type: Passenger vessel. MMSI: 229001000.

Date/timePositionNaut miles runAvg speedWind from/ knotsBaromVisibWave heightAir tempDewpointWater temp
2014-Aug-02 00:33N 37°45' E 026°18'1515.3
2014-Aug-01 23:33N 37°40' E 025°59'1515.4
2014-Aug-01 22:34N 37°36' E 025°41'1615.5
2014-Aug-01 21:33N 37°32' E 025°22'4 4.2
2014-Aug-01 20:33N 37°28' E 025°20'0 0.0
2014-Aug-01 19:33N 37°28' E 025°20'0 0.0
2014-Aug-01 18:33N 37°28' E 025°20'0 0.0
2014-Aug-01 17:33N 37°28' E 025°20'0 0.0
2014-Aug-01 16:33N 37°28' E 025°20'0 0.0
2014-Aug-01 15:33N 37°28' E 025°20'0 0.0
2014-Aug-01 14:33N 37°28' E 025°20'1212.5
2014-Aug-01 13:33N 37°30' E 025°04'1716.7
2014-Aug-01 12:33N 37°32' E 024°43'3616.5
2014-Aug-01 10:23N 37°35' E 023°58'1416.6
2014-Aug-01 09:33N 37°40' E 023°42'1616.2
2014-Aug-01 08:33N 37°56' E 023°37'1 0.7
2014-Aug-01 07:31N 37°56' E 023°38'0 0.0
2014-Aug-01 06:31N 37°56' E 023°38'0 0.0
2014-Aug-01 02:33N 37°56' E 023°38'6 5.6
2014-Aug-01 01:33N 37°51' E 023°39'1616.0
2014-Aug-01 00:33N 37°37' E 023°50'2116.4
2014-Jul-31 23:17N 37°23' E 024°09'1216.3
2014-Jul-31 22:33N 37°16' E 024°21'1616.0
2014-Jul-31 21:33N 37°09' E 024°39'1716.9
2014-Jul-31 20:33N 36°57' E 024°54'1716.8
2014-Jul-31 19:33N 36°45' E 025°09'1716.8
2014-Jul-31 18:33N 36°31' E 025°20'7 7.1
2014-Jul-31 17:33N 36°25' E 025°25'0 0.2
2014-Jul-31 16:34N 36°25' E 025°25'0 0.2
2014-Jul-31 15:33N 36°25' E 025°25'0 0.1
2014-Jul-31 14:32N 36°25' E 025°25'0 0.2
2014-Jul-31 13:32N 36°25' E 025°25'3 3.4
2014-Jul-31 12:33N 36°27' E 025°22'1313.4
2014-Jul-31 11:33N 36°40' E 025°17'4 3.5
2014-Jul-31 10:32N 36°43' E 025°16'0 0.0
2014-Jul-31 09:32N 36°43' E 025°16'0 0.0
2014-Jul-31 08:32N 36°43' E 025°16'0 0.0
2014-Jul-31 07:29N 36°43' E 025°16'0 0.0
2014-Jul-31 06:29N 36°43' E 025°16'0 0.0
2014-Jul-31 05:29N 36°43' E 025°16'0 0.0
2014-Jul-31 04:29N 36°43' E 025°16'0 0.0
2014-Jul-31 03:29N 36°43' E 025°16'5 5.7
2014-Jul-31 02:34N 36°39' E 025°19'9 9.1
2014-Jul-31 01:33N 36°38' E 025°31'1010.0
2014-Jul-31 00:33N 36°41' E 025°43'1010.0
2014-Jul-30 23:34N 36°43' E 025°55'1010.3
2014-Jul-30 22:34N 36°45' E 026°08'1010.3
2014-Jul-30 21:34N 36°47' E 026°20'1010.3
2014-Jul-30 20:33N 36°49' E 026°33'6 6.4
2014-Jul-30 19:33N 36°50' E 026°41'1 1.1
2014-Jul-30 18:32N 36°50' E 026°42'8 8.1
2014-Jul-30 17:33N 36°52' E 026°52'9 8.5
2014-Jul-30 16:32N 36°53' E 027°03'9 8.5
2014-Jul-30 15:33N 36°55' E 027°13'13 0.6
2014-Jul-29 16:31N 37°05' E 027°01'2217.4
2014-Jul-29 15:16N 37°24' E 026°48'1217.4
2014-Jul-29 14:33N 37°34' E 026°39'1717.0
2014-Jul-29 13:33N 37°48' E 026°28'1717.3
2014-Jul-29 12:33N 38°04' E 026°18'25 2.1
2014-Jul-29 00:33N 37°55' E 025°48'1312.9
2014-Jul-28 23:33N 37°46' E 025°37'1313.2
2014-Jul-28 22:33N 37°37' E 025°24'1313.2
2014-Jul-28 21:33N 37°30' E 025°11'1211.5
2014-Jul-28 20:33N 37°26' E 024°57'0 0.1
2014-Jul-28 19:33N 37°26' E 024°57'0 0.0
2014-Jul-28 18:31N 37°26' E 024°57'0 0.0
2014-Jul-28 17:31N 37°26' E 024°57'0 0.0
2014-Jul-28 16:31N 37°26' E 024°57'1 0.6
2014-Jul-28 15:33N 37°26' E 024°57'10 9.7
2014-Jul-28 14:32N 37°32' E 024°47'1616.5
2014-Jul-28 13:33N 37°31' E 024°27'1615.7
2014-Jul-28 12:33N 37°35' E 024°07'4 0.4
2014-Jul-28 02:33N 37°38' E 024°05'6 6.1
2014-Jul-28 01:33N 37°32' E 024°07'6 6.1
2014-Jul-28 00:33N 37°26' E 024°09'7 6.4
2014-Jul-27 23:33N 37°20' E 024°11'6 6.3
2014-Jul-27 22:33N 37°13' E 024°12'7 6.5
2014-Jul-27 21:31N 37°07' E 024°15'6 6.5
2014-Jul-27 20:33N 37°01' E 024°17'6 6.4
2014-Jul-27 19:33N 36°55' E 024°19'6 6.3
2014-Jul-27 18:33N 36°49' E 024°21'7 7.1
2014-Jul-27 17:31N 36°43' E 024°26'6 0.4
2014-Jul-27 03:34N 36°48' E 024°23'1917.0
2014-Jul-27 02:27N 37°03' E 024°37'1516.7
2014-Jul-27 01:33N 37°08' E 024°55'1717.5
2014-Jul-27 00:34N 37°14' E 025°16'1817.5
2014-Jul-26 23:32N 37°21' E 025°37'1717.6
2014-Jul-26 22:33N 37°27' E 025°57'1817.6
2014-Jul-26 21:34N 37°34' E 026°17'10 0.5
2014-Jul-26 00:17N 37°44' E 026°15'1115.8
2014-Jul-25 23:34N 37°41' E 026°01'1615.3
2014-Jul-25 22:31N 37°36' E 025°42'1415.0
2014-Jul-25 21:33N 37°32' E 025°25'6 5.8
2014-Jul-25 20:31N 37°28' E 025°19'0 0.0
2014-Jul-25 19:31N 37°28' E 025°19'0 0.0
2014-Jul-25 18:31N 37°28' E 025°19'0 0.0
2014-Jul-25 17:31N 37°28' E 025°19'0 0.0
2014-Jul-25 16:31N 37°28' E 025°19'0 0.0
2014-Jul-25 15:31N 37°28' E 025°19'4 4.0
2014-Jul-25 14:32N 37°28' E 025°14'3115.5
2014-Jul-25 12:33N 37°31' E 024°36'4016.2
2014-Jul-25 10:06N 37°38' E 023°47'916.0
2014-Jul-25 09:33N 37°45' E 023°39'1111.1
2014-Jul-25 08:33N 37°56' E 023°38'0 0.0
2014-Jul-25 07:33N 37°56' E 023°38'0 0.0
2014-Jul-25 06:33N 37°56' E 023°38'2 0.3
2014-Jul-25 02:11N 37°56' E 023°37'1015.7
2014-Jul-25 01:33N 37°46' E 023°42'1616.2
2014-Jul-25 00:32N 37°34' E 023°55'3216.4
2014-Jul-24 22:34N 37°14' E 024°28'1716.5
2014-Jul-24 21:33N 37°05' E 024°44'1717.4
2014-Jul-24 20:33N 36°53' E 025°00'1716.7
2014-Jul-24 19:33N 36°40' E 025°14'1615.5
2014-Jul-24 18:33N 36°26' E 025°23'2 1.0
2014-Jul-24 16:28N 36°25' E 025°25'0 0.1
2014-Jul-24 13:16N 36°25' E 025°25'6 8.4
2014-Jul-24 12:33N 36°30' E 025°21'1211.6
2014-Jul-24 11:33N 36°41' E 025°16'2 2.4
2014-Jul-24 10:32N 36°43' E 025°16'0 0.0
2014-Jul-24 09:11N 36°43' E 025°16'0 0.0
2014-Jul-24 08:08N 36°43' E 025°16'0 0.0
2014-Jul-24 06:29N 36°43' E 025°16'0 0.0
2014-Jul-24 03:23N 36°43' E 025°16'5 6.6
2014-Jul-24 02:33N 36°39' E 025°19'8 7.8
2014-Jul-24 01:33N 36°39' E 025°29'8 8.1
2014-Jul-24 00:33N 36°40' E 025°39'8 8.1
2014-Jul-23 23:33N 36°42' E 025°49'8 8.4
2014-Jul-23 22:33N 36°44' E 025°59'9 8.6
2014-Jul-23 21:33N 36°45' E 026°10'9 8.6
2014-Jul-23 20:33N 36°47' E 026°20'  
Track history (hours):
 
Tides and Currents Weather Stations Pressure Air Temp Water Temp Dewpoint Dewpoint Depression Visibility Wind Speed Wind Dir Waves Ship Positions

Louis Cristal

Last reported at 2014-Aug-02 00:33 UTC. Time now 2014-Aug-02 02:44 UTC.
Position N 37°45' E 026°18'.

Length 162 m; draft 6 m.

Type: Passenger vessel. MMSI: 229001000.

Date/timePositionNaut miles runAvg speedWind from/ knotsBaromVisibWave heightAir tempDewpointWater temp
2014-Aug-02 00:33N 37°45' E 026°18'1515.3
2014-Aug-01 23:33N 37°40' E 025°59'1515.4
2014-Aug-01 22:34N 37°36' E 025°41'1615.5
2014-Aug-01 21:33N 37°32' E 025°22'4 4.2
2014-Aug-01 20:33N 37°28' E 025°20'0 0.0
2014-Aug-01 19:33N 37°28' E 025°20'0 0.0
2014-Aug-01 18:33N 37°28' E 025°20'0 0.0
2014-Aug-01 17:33N 37°28' E 025°20'0 0.0
2014-Aug-01 16:33N 37°28' E 025°20'0 0.0
2014-Aug-01 15:33N 37°28' E 025°20'0 0.0
2014-Aug-01 14:33N 37°28' E 025°20'1212.5
2014-Aug-01 13:33N 37°30' E 025°04'1716.7
2014-Aug-01 12:33N 37°32' E 024°43'3616.5
2014-Aug-01 10:23N 37°35' E 023°58'1416.6
2014-Aug-01 09:33N 37°40' E 023°42'1616.2
2014-Aug-01 08:33N 37°56' E 023°37'1 0.7
2014-Aug-01 07:31N 37°56' E 023°38'0 0.0
2014-Aug-01 06:31N 37°56' E 023°38'0 0.0
2014-Aug-01 02:33N 37°56' E 023°38'6 5.6
2014-Aug-01 01:33N 37°51' E 023°39'1616.0
2014-Aug-01 00:33N 37°37' E 023°50'2116.4
2014-Jul-31 23:17N 37°23' E 024°09'1216.3
2014-Jul-31 22:33N 37°16' E 024°21'1616.0
2014-Jul-31 21:33N 37°09' E 024°39'1716.9
2014-Jul-31 20:33N 36°57' E 024°54'1716.8
2014-Jul-31 19:33N 36°45' E 025°09'1716.8
2014-Jul-31 18:33N 36°31' E 025°20'7 7.1
2014-Jul-31 17:33N 36°25' E 025°25'0 0.2
2014-Jul-31 16:34N 36°25' E 025°25'0 0.2
2014-Jul-31 15:33N 36°25' E 025°25'0 0.1
2014-Jul-31 14:32N 36°25' E 025°25'0 0.2
2014-Jul-31 13:32N 36°25' E 025°25'3 3.4
2014-Jul-31 12:33N 36°27' E 025°22'1313.4
2014-Jul-31 11:33N 36°40' E 025°17'4 3.5
2014-Jul-31 10:32N 36°43' E 025°16'0 0.0
2014-Jul-31 09:32N 36°43' E 025°16'0 0.0
2014-Jul-31 08:32N 36°43' E 025°16'0 0.0
2014-Jul-31 07:29N 36°43' E 025°16'0 0.0
2014-Jul-31 06:29N 36°43' E 025°16'0 0.0
2014-Jul-31 05:29N 36°43' E 025°16'0 0.0
2014-Jul-31 04:29N 36°43' E 025°16'0 0.0
2014-Jul-31 03:29N 36°43' E 025°16'5 5.7
2014-Jul-31 02:34N 36°39' E 025°19'9 9.1
2014-Jul-31 01:33N 36°38' E 025°31'1010.0
2014-Jul-31 00:33N 36°41' E 025°43'1010.0
2014-Jul-30 23:34N 36°43' E 025°55'1010.3
2014-Jul-30 22:34N 36°45' E 026°08'1010.3
2014-Jul-30 21:34N 36°47' E 026°20'1010.3
2014-Jul-30 20:33N 36°49' E 026°33'6 6.4
2014-Jul-30 19:33N 36°50' E 026°41'1 1.1
2014-Jul-30 18:32N 36°50' E 026°42'8 8.1
2014-Jul-30 17:33N 36°52' E 026°52'9 8.5
2014-Jul-30 16:32N 36°53' E 027°03'9 8.5
2014-Jul-30 15:33N 36°55' E 027°13'13 0.6
2014-Jul-29 16:31N 37°05' E 027°01'2217.4
2014-Jul-29 15:16N 37°24' E 026°48'1217.4
2014-Jul-29 14:33N 37°34' E 026°39'1717.0
2014-Jul-29 13:33N 37°48' E 026°28'1717.3
2014-Jul-29 12:33N 38°04' E 026°18'25 2.1
2014-Jul-29 00:33N 37°55' E 025°48'1312.9
2014-Jul-28 23:33N 37°46' E 025°37'1313.2
2014-Jul-28 22:33N 37°37' E 025°24'1313.2
2014-Jul-28 21:33N 37°30' E 025°11'1211.5
2014-Jul-28 20:33N 37°26' E 024°57'0 0.1
2014-Jul-28 19:33N 37°26' E 024°57'0 0.0
2014-Jul-28 18:31N 37°26' E 024°57'0 0.0
2014-Jul-28 17:31N 37°26' E 024°57'0 0.0
2014-Jul-28 16:31N 37°26' E 024°57'1 0.6
2014-Jul-28 15:33N 37°26' E 024°57'10 9.7
2014-Jul-28 14:32N 37°32' E 024°47'1616.5
2014-Jul-28 13:33N 37°31' E 024°27'1615.7
2014-Jul-28 12:33N 37°35' E 024°07'4 0.4
2014-Jul-28 02:33N 37°38' E 024°05'6 6.1
2014-Jul-28 01:33N 37°32' E 024°07'6 6.1
2014-Jul-28 00:33N 37°26' E 024°09'7 6.4
2014-Jul-27 23:33N 37°20' E 024°11'6 6.3
2014-Jul-27 22:33N 37°13' E 024°12'7 6.5
2014-Jul-27 21:31N 37°07' E 024°15'6 6.5
2014-Jul-27 20:33N 37°01' E 024°17'6 6.4
2014-Jul-27 19:33N 36°55' E 024°19'6 6.3
2014-Jul-27 18:33N 36°49' E 024°21'7 7.1
2014-Jul-27 17:31N 36°43' E 024°26'6 0.4
2014-Jul-27 03:34N 36°48' E 024°23'1917.0
2014-Jul-27 02:27N 37°03' E 024°37'1516.7
2014-Jul-27 01:33N 37°08' E 024°55'1717.5
2014-Jul-27 00:34N 37°14' E 025°16'1817.5
2014-Jul-26 23:32N 37°21' E 025°37'1717.6
2014-Jul-26 22:33N 37°27' E 025°57'1817.6
2014-Jul-26 21:34N 37°34' E 026°17'10 0.5
2014-Jul-26 00:17N 37°44' E 026°15'1115.8
2014-Jul-25 23:34N 37°41' E 026°01'1615.3
2014-Jul-25 22:31N 37°36' E 025°42'1415.0
2014-Jul-25 21:33N 37°32' E 025°25'6 5.8
2014-Jul-25 20:31N 37°28' E 025°19'0 0.0
2014-Jul-25 19:31N 37°28' E 025°19'0 0.0
2014-Jul-25 18:31N 37°28' E 025°19'0 0.0
2014-Jul-25 17:31N 37°28' E 025°19'0 0.0
2014-Jul-25 16:31N 37°28' E 025°19'0 0.0
2014-Jul-25 15:31N 37°28' E 025°19'4 4.0
2014-Jul-25 14:32N 37°28' E 025°14'3115.5
2014-Jul-25 12:33N 37°31' E 024°36'4016.2
2014-Jul-25 10:06N 37°38' E 023°47'916.0
2014-Jul-25 09:33N 37°45' E 023°39'1111.1
2014-Jul-25 08:33N 37°56' E 023°38'0 0.0
2014-Jul-25 07:33N 37°56' E 023°38'0 0.0
2014-Jul-25 06:33N 37°56' E 023°38'2 0.3
2014-Jul-25 02:11N 37°56' E 023°37'1015.7
2014-Jul-25 01:33N 37°46' E 023°42'1616.2
2014-Jul-25 00:32N 37°34' E 023°55'3216.4
2014-Jul-24 22:34N 37°14' E 024°28'1716.5
2014-Jul-24 21:33N 37°05' E 024°44'1717.4
2014-Jul-24 20:33N 36°53' E 025°00'1716.7
2014-Jul-24 19:33N 36°40' E 025°14'1615.5
2014-Jul-24 18:33N 36°26' E 025°23'2 1.0
2014-Jul-24 16:28N 36°25' E 025°25'0 0.1
2014-Jul-24 13:16N 36°25' E 025°25'6 8.4
2014-Jul-24 12:33N 36°30' E 025°21'1211.6
2014-Jul-24 11:33N 36°41' E 025°16'2 2.4
2014-Jul-24 10:32N 36°43' E 025°16'0 0.0
2014-Jul-24 09:11N 36°43' E 025°16'0 0.0
2014-Jul-24 08:08N 36°43' E 025°16'0 0.0
2014-Jul-24 06:29N 36°43' E 025°16'0 0.0
2014-Jul-24 03:23N 36°43' E 025°16'5 6.6
2014-Jul-24 02:33N 36°39' E 025°19'8 7.8
2014-Jul-24 01:33N 36°39' E 025°29'8 8.1
2014-Jul-24 00:33N 36°40' E 025°39'8 8.1
2014-Jul-23 23:33N 36°42' E 025°49'8 8.4
2014-Jul-23 22:33N 36°44' E 025°59'9 8.6
2014-Jul-23 21:33N 36°45' E 026°10'9 8.6
2014-Jul-23 20:33N 36°47' E 026°20'  

Dump ship's entire track history